Hauptseite
METAR-TAF:

METAR-TAF

Flughäfen :

Flughafen Riga

Riga, Lettland

Breite: 56-55N, Länge: 023-58E, Höhe: 10 m

Beobachtung

Neuester Wetterbericht von vor 22 Minuten, um 06:50 UTC
Wind 5 kt aus Nordwest, variierte zwischen West/Südwest und Nord
Temperatur 4°C
Luftfeuchtigkeit 75%
Luftdruck 1022 hPa
Sichtweite 10 km oder mehr
Durchbrochene Bewölkung in der Höhe von 1300 ft

METAR: EVRA 140650Z 32005KT 250V350 9999 BKN013 04/00 Q1022 TEMPO BKN008

Zeit: 10:12 (07:12 UTC)

Prognose

Neuester Wetterbericht von vor 2 Stunden und 11 Minuten, um 05:01 UTC
Gültige Prognose vom 14 um 06 UTC bis 15 um 06 UTC
Wind 2 kt aus unterschiedlichen Richtungen
Sichtweite 10 km oder mehr
keine Wolken unter 1500 m und keine Kumulonimbus oder Gewitterwolken
Übergehend zu
vom 14 um 08 UTC bis 14 um 10 UTC
Wind 10 kt aus Nord

TAF: EVRA 140501Z 1406/1506 VRB02KT CAVOK BECMG 1408/1410 36010KT

Wetterbeobachtungen und Prognosen von mehr als 4000 Flughäfen (METAR und TAF Bericht).

Die verfügbaren Stationen werden durch gelbe und rote Markierungen auf der Karte dargestellt.

Führen Sie die Maus auf sie, um den Namen der Station zu sehen.

Darauf klicken, um die Beobachtung von Wetterbeobachtungen und Prognosen zu sehen.

Um die Karte zu ändern : klicken Sie auf den grünen Tasten mit einem schwarzen Kreuz Zum Vergrößern, auf den grünen Button mit einem Gedankenstrich zu verkleinern, oder auf die grünen Pfeile für benachbarte Karten.


METAR-TAF: